Time,TemperatureF,DewpointF,PressureIn,WindDirection,WindDirectionDegrees,WindSpeedMPH,WindSpeedGustMPH,Humidity,HourlyPrecipIn,Conditions,Clouds,dailyrainin,SoftwareType,DateUTC
2013-03-17 00:00:00,13.5,5.2,30.20,NW,317,3.5,3.5,69,0.00,RA,,0.00,WeatherDisplay:10.37,2013-03-17 05:00:00,
2013-03-17 00:05:00,13.5,5.2,30.20,NW,318,4.6,4.6,69,0.00,RA,,0.00,WeatherDisplay:10.37,2013-03-17 05:05:00,
2013-03-17 00:10:00,13.3,5.0,30.20,NW,320,3.5,3.5,69,0.00,CLR,,0.00,WeatherDisplay:10.37,2013-03-17 05:10:00,
2013-03-17 00:15:00,13.3,5.0,30.20,NW,323,5.0,5.0,69,0.00,CLR,,0.00,WeatherDisplay:10.37,2013-03-17 05:15:00,
2013-03-17 00:20:00,13.3,4.7,30.20,NW,311,8.1,8.1,68,0.00,CLR,,0.00,WeatherDisplay:10.37,2013-03-17 05:20:00,
2013-03-17 00:25:00,13.3,4.4,30.20,NNW,337,6.0,6.0,67,0.00,CLR,,0.00,WeatherDisplay:10.37,2013-03-17 05:25:00,
2013-03-17 00:30:00,13.1,4.2,30.21,NNW,334,10.4,10.4,67,0.00,CLR,,0.00,WeatherDisplay:10.37,2013-03-17 05:30:00,
2013-03-17 00:35:00,13.1,4.2,30.21,NNW,336,6.9,6.9,67,0.00,CLR,,0.00,WeatherDisplay:10.37,2013-03-17 05:35:00,
2013-03-17 00:40:00,13.1,3.9,30.21,NNW,340,6.9,6.9,66,0.00,CLR,,0.00,WeatherDisplay:10.37,2013-03-17 05:40:00,
2013-03-17 00:45:00,12.9,3.7,30.21,NNW,345,10.4,10.4,66,0.00,CLR,,0.00,WeatherDisplay:10.37,2013-03-17 05:45:00,
2013-03-17 00:50:00,12.9,3.3,30.21,NW,318,7.0,7.0,65,0.00,CLR,,0.00,WeatherDisplay:10.37,2013-03-17 05:50:00,
2013-03-17 00:55:00,12.8,2.9,30.21,NNW,347,11.5,11.5,64,0.00,CLR,,0.00,WeatherDisplay:10.37,2013-03-17 05:55:00,
2013-03-17 01:00:00,12.8,2.9,30.21,NNW,327,9.2,9.2,64,0.00,CLR,,0.00,WeatherDisplay:10.37,2013-03-17 06:00:00,
2013-03-17 01:05:00,12.6,2.4,30.21,NNW,340,3.5,3.5,63,0.00,CLR,,0.00,WeatherDisplay:10.37,2013-03-17 06:05:00,
2013-03-17 01:10:00,12.4,2.2,30.21,NW,320,4.6,4.6,63,0.00,CLR,,0.00,WeatherDisplay:10.37,2013-03-17 06:10:00,
2013-03-17 01:15:00,12.4,2.2,30.21,NW,311,5.8,5.8,63,0.00,CLR,,0.00,WeatherDisplay:10.37,2013-03-17 06:15:00,
2013-03-17 01:20:00,12.3,1.7,30.21,NNW,336,3.5,3.5,62,0.00,CLR,,0.00,WeatherDisplay:10.37,2013-03-17 06:20:00,
2013-03-17 01:25:00,12.1,1.9,30.21,NNW,341,4.6,4.6,63,0.00,CLR,,0.00,WeatherDisplay:10.37,2013-03-17 06:25:00,
2013-03-17 01:30:00,11.9,1.7,30.22,NNW,342,2.3,2.3,63,0.00,CLR,,0.00,WeatherDisplay:10.37,2013-03-17 06:30:00,
2013-03-17 01:35:00,11.9,1.7,30.22,North,360,4.6,4.6,63,0.00,CLR,,0.00,WeatherDisplay:10.37,2013-03-17 06:35:00,
2013-03-17 01:40:00,11.9,1.7,30.22,North,360,3.5,3.5,63,0.00,CLR,,0.00,WeatherDisplay:10.37,2013-03-17 06:40:00,
2013-03-17 01:45:00,11.7,1.5,30.21,North,355,10.0,10.0,63,0.00,CLR,,0.00,WeatherDisplay:10.37,2013-03-17 06:45:00,
2013-03-17 01:50:00,11.7,1.5,30.21,North,355,5.8,5.8,63,0.00,CLR,,0.00,WeatherDisplay:10.37,2013-03-17 06:50:00,
2013-03-17 01:55:00,11.7,1.5,30.21,North,360,2.3,2.3,63,0.00,CLR,,0.00,WeatherDisplay:10.37,2013-03-17 06:55:00,
2013-03-17 02:00:00,11.7,1.5,30.22,NNW,339,3.5,3.5,63,0.00,CLR,,0.00,WeatherDisplay:10.37,2013-03-17 07:00:00,
2013-03-17 02:05:00,11.6,1.4,30.22,NNW,339,3.5,3.5,63,0.00,CLR,,0.00,WeatherDisplay:10.37,2013-03-17 07:05:00,
2013-03-17 02:10:00,11.6,1.1,30.22,NNW,337,5.8,5.8,62,0.00,CLR,,0.00,WeatherDisplay:10.37,2013-03-17 07:10:00,
2013-03-17 02:15:00,11.6,0.7,30.23,North,350,6.9,6.9,61,0.00,CLR,,0.00,WeatherDisplay:10.37,2013-03-17 07:15:00,
2013-03-17 02:20:00,11.6,0.4,30.23,NNE,31,5.8,5.8,60,0.00,CLR,,0.00,WeatherDisplay:10.37,2013-03-17 07:20:00,
2013-03-17 02:25:00,11.6,0.4,30.23,NNE,24,5.8,5.8,60,0.00,CLR,,0.00,WeatherDisplay:10.37,2013-03-17 07:25:00,
2013-03-17 02:30:00,11.6,0.4,30.23,NNE,22,3.5,3.5,60,0.00,CLR,,0.00,WeatherDisplay:10.37,2013-03-17 07:30:00,
2013-03-17 02:35:00,11.4,0.2,30.23,NNE,24,6.0,6.0,60,0.00,CLR,,0.00,WeatherDisplay:10.37,2013-03-17 07:35:00,
2013-03-17 02:40:00,11.2,0.0,30.23,North,355,5.8,5.8,60,0.00,CLR,,0.00,WeatherDisplay:10.37,2013-03-17 07:40:00,
2013-03-17 02:45:00,11.2,-0.4,30.23,North,5,6.9,6.9,59,0.00,CLR,,0.00,WeatherDisplay:10.37,2013-03-17 07:45:00,
2013-03-17 02:50:00,11.2,-0.4,30.23,NNE,22,4.6,4.6,59,0.00,CLR,,0.00,WeatherDisplay:10.37,2013-03-17 07:50:00,
2013-03-17 02:55:00,11.1,-0.1,30.23,North,355,5.0,5.0,60,0.00,CLR,,0.00,WeatherDisplay:10.37,2013-03-17 07:55:00,
2013-03-17 03:00:00,11.1,-0.1,30.22,NNE,14,4.6,4.6,60,0.00,CLR,,0.00,WeatherDisplay:10.37,2013-03-17 08:00:00,
2013-03-17 03:05:00,10.9,-0.3,30.22,North,5,4.6,4.6,60,0.00,CLR,,0.00,WeatherDisplay:10.37,2013-03-17 08:05:00,
2013-03-17 03:10:00,10.7,-0.5,30.22,NNE,15,6.9,6.9,60,0.00,CLR,,0.00,WeatherDisplay:10.37,2013-03-17 08:10:00,
2013-03-17 03:15:00,10.7,-0.5,30.21,North,11,6.9,6.9,60,0.00,CLR,,0.00,WeatherDisplay:10.37,2013-03-17 08:15:00,
2013-03-17 03:20:00,10.7,-0.5,30.21,North,10,8.1,8.1,60,0.00,CLR,,0.00,WeatherDisplay:10.37,2013-03-17 08:20:00,
2013-03-17 03:25:00,10.7,-0.5,30.21,North,349,3.5,3.5,60,0.00,CLR,,0.00,WeatherDisplay:10.37,2013-03-17 08:25:00,
2013-03-17 03:30:00,10.5,-0.7,30.21,NNE,27,4.6,4.6,60,0.00,CLR,,0.00,WeatherDisplay:10.37,2013-03-17 08:30:00,
2013-03-17 03:35:00,10.4,-0.8,30.21,NNE,25,5.8,5.8,60,0.00,CLR,,0.00,WeatherDisplay:10.37,2013-03-17 08:35:00,
2013-03-17 03:40:00,10.4,-0.8,30.21,NNE,30,3.5,3.5,60,0.00,CLR,,0.00,WeatherDisplay:10.37,2013-03-17 08:40:00,
2013-03-17 03:45:00,10.2,-0.9,30.21,NNE,20,6.9,6.9,60,0.00,CLR,,0.00,WeatherDisplay:10.37,2013-03-17 08:45:00,
2013-03-17 03:50:00,10.2,-0.9,30.21,NNE,13,6.9,6.9,60,0.00,CLR,,0.00,WeatherDisplay:10.37,2013-03-17 08:50:00,
2013-03-17 03:55:00,10.0,-1.1,30.21,NNE,22,3.5,3.5,60,0.00,CLR,,0.00,WeatherDisplay:10.37,2013-03-17 08:55:00,
2013-03-17 04:00:00,9.9,-1.2,30.20,NNE,14,3.5,3.5,60,0.00,CLR,,0.00,WeatherDisplay:10.37,2013-03-17 09:00:00,
2013-03-17 04:05:00,9.9,-1.2,30.20,NE,55,4.6,4.6,60,0.00,CLR,,0.00,WeatherDisplay:10.37,2013-03-17 09:05:00,
2013-03-17 04:10:00,9.9,-1.2,30.20,NE,48,3.5,3.5,60,0.00,CLR,,0.00,WeatherDisplay:10.37,2013-03-17 09:10:00,
2013-03-17 04:15:00,9.7,-1.4,30.20,North,360,3.5,3.5,60,0.00,CLR,,0.00,WeatherDisplay:10.37,2013-03-17 09:15:00,
2013-03-17 04:20:00,9.7,-1.1,30.20,North,5,4.6,4.6,61,0.00,CLR,,0.00,WeatherDisplay:10.37,2013-03-17 09:20:00,
2013-03-17 04:25:00,9.7,-1.1,30.20,NNE,28,3.5,3.5,61,0.00,CLR,,0.00,WeatherDisplay:10.37,2013-03-17 09:25:00,
2013-03-17 04:30:00,9.5,-0.6,30.20,NNE,28,3.5,3.5,63,0.00,CLR,,0.00,WeatherDisplay:10.37,2013-03-17 09:30:00,
2013-03-17 04:35:00,9.3,-1.4,30.20,NE,41,3.5,3.5,61,0.00,CLR,,0.00,WeatherDisplay:10.37,2013-03-17 09:35:00,
2013-03-17 04:40:00,9.3,-1.4,30.20,North,5,3.5,3.5,61,0.00,CLR,,0.00,WeatherDisplay:10.37,2013-03-17 09:40:00,
2013-03-17 04:45:00,9.2,-1.5,30.19,NNE,15,2.0,2.0,61,0.00,CLR,,0.00,WeatherDisplay:10.37,2013-03-17 09:45:00,
2013-03-17 04:50:00,9.2,-1.2,30.19,NNE,30,3.5,3.5,62,0.00,CLR,,0.00,WeatherDisplay:10.37,2013-03-17 09:50:00,
2013-03-17 04:55:00,9.2,-1.2,30.19,NE,52,4.6,4.6,62,0.00,CLR,,0.00,WeatherDisplay:10.37,2013-03-17 09:55:00,
2013-03-17 05:00:00,9.0,-1.4,30.19,NNE,14,2.3,2.3,62,0.00,CLR,,0.00,WeatherDisplay:10.37,2013-03-17 10:00:00,
2013-03-17 05:05:00,9.0,-1.4,30.19,NNE,14,3.5,3.5,62,0.00,CLR,,0.00,WeatherDisplay:10.37,2013-03-17 10:05:00,
2013-03-17 05:10:00,9.0,-1.4,30.19,NNE,13,1.1,1.1,62,0.00,CLR,,0.00,WeatherDisplay:10.37,2013-03-17 10:10:00,
2013-03-17 05:15:00,8.8,-1.6,30.19,ENE,71,5.0,5.0,62,0.00,CLR,,0.00,WeatherDisplay:10.37,2013-03-17 10:15:00,
2013-03-17 05:20:00,8.8,-1.6,30.19,NNE,12,3.5,3.5,62,0.00,CLR,,0.00,WeatherDisplay:10.37,2013-03-17 10:20:00,
2013-03-17 05:25:00,8.8,-1.6,30.19,NE,55,3.5,3.5,62,0.00,CLR,,0.00,WeatherDisplay:10.37,2013-03-17 10:25:00,
2013-03-17 05:30:00,8.8,-1.6,30.19,NE,42,2.3,2.3,62,0.00,CLR,,0.00,WeatherDisplay:10.37,2013-03-17 10:30:00,
2013-03-17 05:35:00,8.8,-1.6,30.19,NNE,26,4.6,4.6,62,0.00,CLR,,0.00,WeatherDisplay:10.37,2013-03-17 10:35:00,
2013-03-17 05:40:00,8.8,-1.6,30.19,NNE,28,4.6,4.6,62,0.00,CLR,,0.00,WeatherDisplay:10.37,2013-03-17 10:40:00,
2013-03-17 05:45:00,8.6,-1.8,30.19,ENE,71,4.6,4.6,62,0.00,CLR,,0.00,WeatherDisplay:10.37,2013-03-17 10:45:00,
2013-03-17 05:50:00,8.6,-1.8,30.19,NNE,20,3.5,3.5,62,0.00,CLR,,0.00,WeatherDisplay:10.37,2013-03-17 10:50:00,
2013-03-17 05:55:00,8.6,-1.8,30.19,NNE,22,3.5,3.5,62,0.00,CLR,,0.00,WeatherDisplay:10.37,2013-03-17 10:55:00,
2013-03-17 06:00:00,8.6,-1.8,30.19,NNE,24,3.5,3.5,62,0.00,CLR,,0.00,WeatherDisplay:10.37,2013-03-17 11:00:00,
2013-03-17 06:05:00,8.6,-1.8,30.19,NE,43,3.5,3.5,62,0.00,CLR,,0.00,WeatherDisplay:10.37,2013-03-17 11:05:00,
2013-03-17 06:10:00,8.4,-2.0,30.19,NNW,344,4.6,4.6,62,0.00,CLR,,0.00,WeatherDisplay:10.37,2013-03-17 11:10:00,
2013-03-17 06:15:00,8.4,-2.0,30.19,NE,37,4.6,4.6,62,0.00,CLR,,0.00,WeatherDisplay:10.37,2013-03-17 11:15:00,
2013-03-17 06:20:00,8.4,-2.0,30.19,NE,40,3.5,3.5,62,0.00,CLR,,0.00,WeatherDisplay:10.37,2013-03-17 11:20:00,
2013-03-17 06:25:00,8.3,-2.1,30.19,NNE,12,3.5,3.5,62,0.00,CLR,,0.00,WeatherDisplay:10.37,2013-03-17 11:25:00,
2013-03-17 06:30:00,8.3,-2.1,30.19,NNE,15,3.5,3.5,62,0.00,CLR,,0.00,WeatherDisplay:10.37,2013-03-17 11:30:00,
2013-03-17 06:35:00,8.1,-2.2,30.19,NNE,17,3.5,3.5,62,0.00,CLR,,0.00,WeatherDisplay:10.37,2013-03-17 11:35:00,
2013-03-17 06:40:00,8.1,-1.9,30.19,NNE,17,3.5,3.5,63,0.00,CLR,,0.00,WeatherDisplay:10.37,2013-03-17 11:40:00,
2013-03-17 06:45:00,7.9,-2.1,30.19,NNE,17,3.5,3.5,63,0.00,CLR,,0.00,WeatherDisplay:10.37,2013-03-17 11:45:00,
2013-03-17 06:50:00,7.9,-2.1,30.19,NNE,17,3.5,3.5,63,0.00,CLR,,0.00,WeatherDisplay:10.37,2013-03-17 11:50:00,
2013-03-17 06:55:00,7.9,-2.1,30.19,NNE,17,3.5,3.5,63,0.00,CLR,,0.00,WeatherDisplay:10.37,2013-03-17 11:55:00,
2013-03-17 07:00:00,7.9,-2.1,30.19,NNE,17,3.5,3.5,63,0.00,CLR,,0.00,WeatherDisplay:10.37,2013-03-17 12:00:00,
2013-03-17 07:05:00,7.7,-2.0,30.19,NNE,19,3.5,3.5,64,0.00,CLR,,0.00,WeatherDisplay:10.37,2013-03-17 12:05:00,
2013-03-17 07:10:00,7.7,-2.0,30.19,NNE,21,3.5,3.5,64,0.00,CLR,,0.00,WeatherDisplay:10.37,2013-03-17 12:10:00,
2013-03-17 07:15:00,7.7,-2.0,30.19,ENE,74,3.5,3.5,64,0.00,CLR,,0.00,WeatherDisplay:10.37,2013-03-17 12:15:00,
2013-03-17 07:20:00,7.7,-2.0,30.19,NE,42,3.5,3.5,64,0.00,CLR,,0.00,WeatherDisplay:10.37,2013-03-17 12:20:00,
2013-03-17 07:25:00,7.7,-2.0,30.19,ENE,72,3.5,3.5,64,0.00,CLR,,0.00,WeatherDisplay:10.37,2013-03-17 12:25:00,
2013-03-17 07:30:00,7.7,-2.0,30.19,ENE,74,1.1,1.1,64,0.00,CLR,,0.00,WeatherDisplay:10.37,2013-03-17 12:30:00,
2013-03-17 07:35:00,7.7,-2.0,30.19,NE,52,5.8,5.8,64,0.00,CLR,,0.00,WeatherDisplay:10.37,2013-03-17 12:35:00,
2013-03-17 07:40:00,7.7,-2.0,30.19,NE,55,3.5,3.5,64,0.00,CLR,,0.00,WeatherDisplay:10.37,2013-03-17 12:40:00,
2013-03-17 07:45:00,7.9,-1.8,30.19,East,80,3.5,3.5,64,0.00,CLR,,0.00,WeatherDisplay:10.37,2013-03-17 12:45:00,
2013-03-17 07:50:00,8.1,-1.6,30.19,East,98,3.5,3.5,64,0.00,CLR,,0.00,WeatherDisplay:10.37,2013-03-17 12:50:00,
2013-03-17 07:55:00,8.1,-1.9,30.19,ESE,107,4.6,4.6,63,0.00,CLR,,0.00,WeatherDisplay:10.37,2013-03-17 12:55:00,
2013-03-17 08:00:00,8.3,-1.7,30.19,East,90,3.5,3.5,63,0.00,CLR,,0.00,WeatherDisplay:10.37,2013-03-17 13:00:00,
2013-03-17 08:05:00,8.3,-2.1,30.19,ENE,58,3.5,3.5,62,0.00,CLR,,0.00,WeatherDisplay:10.37,2013-03-17 13:05:00,
2013-03-17 08:10:00,8.4,-2.0,30.19,East,93,4.6,4.6,62,0.00,CLR,,0.00,WeatherDisplay:10.37,2013-03-17 13:10:00,
2013-03-17 08:15:00,8.4,-2.0,30.18,East,90,4.6,4.6,62,0.00,CLR,,0.00,WeatherDisplay:10.37,2013-03-17 13:15:00,
2013-03-17 08:20:00,8.4,-2.0,30.18,ESE,106,7.0,7.0,62,0.00,CLR,,0.00,WeatherDisplay:10.37,2013-03-17 13:20:00,
2013-03-17 08:25:00,8.6,-1.4,30.18,ESE,113,5.8,5.8,63,0.00,CLR,,0.00,WeatherDisplay:10.37,2013-03-17 13:25:00,
2013-03-17 08:30:00,8.6,-1.8,30.18,SSW,201,4.6,4.6,62,0.00,CLR,,0.00,WeatherDisplay:10.37,2013-03-17 13:30:00,
2013-03-17 08:35:00,8.4,-2.0,30.18,East,96,5.8,5.8,62,0.00,CLR,,0.00,WeatherDisplay:10.37,2013-03-17 13:35:00,
2013-03-17 08:40:00,8.6,-1.8,30.18,East,101,4.6,4.6,62,0.00,CLR,,0.00,WeatherDisplay:10.37,2013-03-17 13:40:00,
2013-03-17 08:45:00,8.8,-1.6,30.18,ESE,103,8.1,8.1,62,0.00,CLR,,0.00,WeatherDisplay:10.37,2013-03-17 13:45:00,
2013-03-17 08:50:00,9.2,-1.2,30.18,SSE,150,6.9,6.9,62,0.00,CLR,,0.00,WeatherDisplay:10.37,2013-03-17 13:50:00,
2013-03-17 08:55:00,9.2,-1.5,30.18,East,90,6.9,6.9,61,0.00,CLR,,0.00,WeatherDisplay:10.37,2013-03-17 13:55:00,
2013-03-17 09:00:00,9.5,-1.3,30.18,ESE,117,4.6,4.6,61,0.00,CLR,,0.00,WeatherDisplay:10.37,2013-03-17 14:00:00,
2013-03-17 09:05:00,9.7,-1.4,30.18,ESE,109,4.6,4.6,60,0.00,CLR,,0.00,WeatherDisplay:10.37,2013-03-17 14:05:00,
2013-03-17 09:10:00,10.0,-1.1,30.18,NE,54,3.5,3.5,60,0.00,CLR,,0.00,WeatherDisplay:10.37,2013-03-17 14:10:00,
2013-03-17 09:15:00,10.7,-0.5,30.19,SE,137,4.0,4.0,60,0.00,CLR,,0.00,WeatherDisplay:10.37,2013-03-17 14:15:00,
2013-03-17 09:20:00,11.1,-0.5,30.19,ESE,123,10.4,10.4,59,0.00,CLR,,0.00,WeatherDisplay:10.37,2013-03-17 14:20:00,
2013-03-17 09:25:00,11.1,-0.8,30.19,SSE,151,11.5,11.5,58,0.00,CLR,,0.00,WeatherDisplay:10.37,2013-03-17 14:25:00,
2013-03-17 09:30:00,11.1,-0.8,30.19,East,81,4.6,4.6,58,0.00,CLR,,0.00,WeatherDisplay:10.37,2013-03-17 14:30:00,
2013-03-17 09:35:00,11.6,-0.3,30.19,East,99,11.5,11.5,58,0.00,CLR,,0.00,WeatherDisplay:10.37,2013-03-17 14:35:00,
2013-03-17 09:40:00,11.7,-0.3,30.19,ESE,121,10.4,10.4,58,0.00,CLR,,0.00,WeatherDisplay:10.37,2013-03-17 14:40:00,
2013-03-17 09:45:00,12.1,-0.2,30.19,ESE,110,6.9,6.9,57,0.00,CLR,,0.00,WeatherDisplay:10.37,2013-03-17 14:45:00,
2013-03-17 09:50:00,12.4,0.0,30.19,East,96,9.2,9.2,57,0.00,CLR,,0.00,WeatherDisplay:10.37,2013-03-17 14:50:00,
2013-03-17 09:55:00,12.6,0.2,30.19,ESE,109,5.8,5.8,57,0.00,CLR,,0.00,WeatherDisplay:10.37,2013-03-17 14:55:00,
2013-03-17 10:00:00,13.1,1.1,30.19,SE,130,3.5,3.5,58,0.00,CLR,,0.00,WeatherDisplay:10.37,2013-03-17 15:00:00,
2013-03-17 10:05:00,14.0,1.5,30.19,ESE,102,3.5,3.5,57,0.00,CLR,,0.00,WeatherDisplay:10.37,2013-03-17 15:05:00,
2013-03-17 10:10:00,14.6,2.1,30.19,SSE,161,5.8,5.8,57,0.00,CLR,,0.00,WeatherDisplay:10.37,2013-03-17 15:10:00,
2013-03-17 10:15:00,14.9,2.0,30.19,SSE,148,6.0,6.0,56,0.00,CLR,,0.00,WeatherDisplay:10.37,2013-03-17 15:15:00,
2013-03-17 10:20:00,15.4,2.5,30.19,SSE,157,6.0,6.0,56,0.00,CLR,,0.00,WeatherDisplay:10.37,2013-03-17 15:20:00,
2013-03-17 10:25:00,15.7,2.0,30.19,East,95,11.5,11.5,54,0.00,CLR,,0.00,WeatherDisplay:10.37,2013-03-17 15:25:00,
2013-03-17 10:30:00,15.9,2.2,30.18,SE,143,9.2,9.2,54,0.00,CLR,,0.00,WeatherDisplay:10.37,2013-03-17 15:30:00,
2013-03-17 10:35:00,15.7,2.0,30.18,SSE,148,12.7,12.7,54,0.00,CLR,,0.00,WeatherDisplay:10.37,2013-03-17 15:35:00,
2013-03-17 10:40:00,15.9,2.6,30.18,South,170,9.2,9.2,55,0.00,CLR,,0.00,WeatherDisplay:10.37,2013-03-17 15:40:00,
2013-03-17 10:45:00,16.9,3.5,30.17,SE,141,10.4,10.4,55,0.00,CLR,,0.00,WeatherDisplay:10.37,2013-03-17 15:45:00,
2013-03-17 10:50:00,17.0,2.8,30.17,SSE,167,12.7,12.7,53,0.00,CLR,,0.00,WeatherDisplay:10.37,2013-03-17 15:50:00,
2013-03-17 10:55:00,16.9,3.1,30.17,ESE,105,12.7,12.7,54,0.00,CLR,,0.00,WeatherDisplay:10.37,2013-03-17 15:55:00,
2013-03-17 11:00:00,17.2,3.4,30.17,SSE,148,17.3,17.3,54,0.00,CLR,,0.00,WeatherDisplay:10.37,2013-03-17 16:00:00,
2013-03-17 11:05:00,17.8,3.9,30.17,ENE,71,11.5,11.5,54,0.00,CLR,,0.00,WeatherDisplay:10.37,2013-03-17 16:05:00,
2013-03-17 11:10:00,18.1,3.8,30.17,ESE,118,11.5,11.5,53,0.00,CLR,,0.00,WeatherDisplay:10.37,2013-03-17 16:10:00,
2013-03-17 11:15:00,18.3,3.6,30.17,SSE,151,11.5,11.5,52,0.00,CLR,,0.00,WeatherDisplay:10.37,2013-03-17 16:15:00,
2013-03-17 11:20:00,18.1,3.8,30.17,SE,141,10.4,10.4,53,0.00,CLR,,0.00,WeatherDisplay:10.37,2013-03-17 16:20:00,
2013-03-17 11:25:00,18.9,4.6,30.17,SE,130,12.7,12.7,53,0.00,CLR,,0.00,WeatherDisplay:10.37,2013-03-17 16:25:00,
2013-03-17 11:30:00,18.8,4.1,30.16,SE,136,11.5,11.5,52,0.00,CLR,,0.00,WeatherDisplay:10.37,2013-03-17 16:30:00,
2013-03-17 11:35:00,19.2,4.8,30.16,SE,141,10.4,10.4,53,0.00,CLR,,0.00,WeatherDisplay:10.37,2013-03-17 16:35:00,
2013-03-17 11:40:00,19.7,4.9,30.16,SE,138,11.5,11.5,52,0.00,CLR,,0.00,WeatherDisplay:10.37,2013-03-17 16:40:00,
2013-03-17 11:45:00,19.2,5.3,30.15,South,169,10.4,10.4,54,0.00,SCT,,0.00,WeatherDisplay:10.37,2013-03-17 16:45:00,
2013-03-17 11:50:00,19.9,5.1,30.15,SE,134,12.7,12.7,52,0.00,SCT,,0.00,WeatherDisplay:10.37,2013-03-17 16:50:00,
2013-03-17 11:55:00,19.7,5.3,30.15,SSE,150,11.5,11.5,53,0.00,SCT,,0.00,WeatherDisplay:10.37,2013-03-17 16:55:00,
2013-03-17 12:00:00,19.4,5.0,30.15,SE,146,6.9,6.9,53,0.00,SCT,,0.00,WeatherDisplay:10.37,2013-03-17 17:00:00,
2013-03-17 12:05:00,19.7,5.7,30.15,ESE,112,4.6,4.6,54,0.00,SCT,,0.00,WeatherDisplay:10.37,2013-03-17 17:05:00,
2013-03-17 12:10:00,21.0,6.5,30.15,SSE,165,5.8,5.8,53,0.00,SCT,,0.00,WeatherDisplay:10.37,2013-03-17 17:10:00,
2013-03-17 12:15:00,21.3,6.4,30.14,SSE,157,13.8,13.8,52,0.00,SCT,,0.00,WeatherDisplay:10.37,2013-03-17 17:15:00,
2013-03-17 12:20:00,21.4,6.5,30.14,SSE,153,6.9,6.9,52,0.00,SCT,,0.00,WeatherDisplay:10.37,2013-03-17 17:20:00,
2013-03-17 12:25:00,22.4,7.0,30.14,SE,130,11.5,11.5,51,0.00,SCT,,0.00,WeatherDisplay:10.37,2013-03-17 17:25:00,
2013-03-17 12:30:00,22.7,7.7,30.13,SSW,196,10.4,10.4,52,0.00,CLR,,0.00,WeatherDisplay:10.37,2013-03-17 17:30:00,
2013-03-17 12:35:00,22.9,7.9,30.13,East,100,11.5,11.5,52,0.00,CLR,,0.00,WeatherDisplay:10.37,2013-03-17 17:35:00,
2013-03-17 12:40:00,23.3,7.8,30.13,SE,145,6.9,6.9,51,0.00,CLR,,0.00,WeatherDisplay:10.37,2013-03-17 17:40:00,
2013-03-17 12:45:00,23.2,7.3,30.13,SE,138,9.2,9.2,50,0.00,BKN,,0.00,WeatherDisplay:10.37,2013-03-17 17:45:00,
2013-03-17 12:50:00,22.4,7.0,30.13,SE,140,11.5,11.5,51,0.00,BKN,,0.00,WeatherDisplay:10.37,2013-03-17 17:50:00,
2013-03-17 12:55:00,23.2,8.2,30.13,SSE,154,5.8,5.8,52,0.00,BKN,,0.00,WeatherDisplay:10.37,2013-03-17 17:55:00,
2013-03-17 13:00:00,23.3,7.8,30.12,ESE,111,10.4,10.4,51,0.00,BKN,,0.00,WeatherDisplay:10.37,2013-03-17 18:00:00,
2013-03-17 13:05:00,23.5,7.1,30.12,SE,146,16.1,16.1,49,0.00,BKN,,0.00,WeatherDisplay:10.37,2013-03-17 18:05:00,
2013-03-17 13:10:00,23.3,7.8,30.12,SSE,149,15.0,15.0,51,0.00,BKN,,0.00,WeatherDisplay:10.37,2013-03-17 18:10:00,
2013-03-17 13:15:00,23.5,8.4,30.11,South,176,10.4,10.4,52,0.00,BKN,,0.00,WeatherDisplay:10.37,2013-03-17 18:15:00,
2013-03-17 13:20:00,23.6,8.5,30.11,SE,144,9.2,9.2,52,0.00,BKN,,0.00,WeatherDisplay:10.37,2013-03-17 18:20:00,
2013-03-17 13:25:00,24.2,8.7,30.11,SE,140,11.5,11.5,51,0.00,BKN,,0.00,WeatherDisplay:10.37,2013-03-17 18:25:00,
2013-03-17 13:30:00,24.1,8.1,30.10,South,187,13.8,13.8,50,0.00,SCT,,0.00,WeatherDisplay:10.37,2013-03-17 18:30:00,
2013-03-17 13:35:00,24.1,8.6,30.10,SSE,151,12.7,12.7,51,0.00,SCT,,0.00,WeatherDisplay:10.37,2013-03-17 18:35:00,
2013-03-17 13:40:00,24.2,8.7,30.10,South,187,11.5,11.5,51,0.00,SCT,,0.00,WeatherDisplay:10.37,2013-03-17 18:40:00,
2013-03-17 13:45:00,24.5,8.9,30.09,South,186,10.4,10.4,51,0.00,BKN,,0.00,WeatherDisplay:10.37,2013-03-17 18:45:00,
2013-03-17 13:50:00,24.2,8.2,30.09,ESE,117,12.7,12.7,50,0.00,BKN,,0.00,WeatherDisplay:10.37,2013-03-17 18:50:00,
2013-03-17 13:55:00,24.4,8.8,30.09,South,188,13.8,13.8,51,0.00,BKN,,0.00,WeatherDisplay:10.37,2013-03-17 18:55:00,
2013-03-17 14:00:00,24.4,8.8,30.08,SSE,149,10.4,10.4,51,0.00,SCT,,0.00,WeatherDisplay:10.37,2013-03-17 19:00:00,
2013-03-17 14:05:00,25.1,9.5,30.08,South,173,11.5,11.5,51,0.00,SCT,,0.00,WeatherDisplay:10.37,2013-03-17 19:05:00,
2013-03-17 14:10:00,25.0,9.0,30.08,SE,132,11.5,11.5,50,0.00,SCT,,0.00,WeatherDisplay:10.37,2013-03-17 19:10:00,
2013-03-17 14:15:00,25.0,9.4,30.07,SSE,160,11.5,11.5,51,0.00,SCT,,0.00,WeatherDisplay:10.37,2013-03-17 19:15:00,
2013-03-17 14:20:00,25.0,9.8,30.07,SSE,150,16.1,16.1,52,0.00,SCT,,0.00,WeatherDisplay:10.37,2013-03-17 19:20:00,
2013-03-17 14:25:00,25.3,8.8,30.07,SE,140,10.4,10.4,49,0.00,SCT,,0.00,WeatherDisplay:10.37,2013-03-17 19:25:00,
2013-03-17 14:30:00,25.4,9.8,30.06,SSE,159,11.5,11.5,51,0.00,SCT,,0.00,WeatherDisplay:10.37,2013-03-17 19:30:00,
2013-03-17 14:35:00,25.7,10.0,30.06,SSE,150,5.8,5.8,51,0.00,SCT,,0.00,WeatherDisplay:10.37,2013-03-17 19:35:00,
2013-03-17 14:40:00,26.0,9.9,30.06,SE,140,11.5,11.5,50,0.00,SCT,,0.00,WeatherDisplay:10.37,2013-03-17 19:40:00,
2013-03-17 14:45:00,26.0,9.9,30.04,SSE,150,12.7,12.7,50,0.00,SCT,,0.00,WeatherDisplay:10.37,2013-03-17 19:45:00,
2013-03-17 14:50:00,25.7,10.0,30.04,SSE,152,11.5,11.5,51,0.00,SCT,,0.00,WeatherDisplay:10.37,2013-03-17 19:50:00,
2013-03-17 14:55:00,25.6,10.0,30.04,SE,130,6.9,6.9,51,0.00,SCT,,0.00,WeatherDisplay:10.37,2013-03-17 19:55:00,
2013-03-17 15:00:00,26.1,10.4,30.02,ESE,113,11.5,11.5,51,0.00,SCT,,0.00,WeatherDisplay:10.37,2013-03-17 20:00:00,
2013-03-17 15:05:00,25.4,9.3,30.02,ESE,105,11.5,11.5,50,0.00,SCT,,0.00,WeatherDisplay:10.37,2013-03-17 20:05:00,
2013-03-17 15:10:00,25.7,9.6,30.02,SE,133,11.5,11.5,50,0.00,SCT,,0.00,WeatherDisplay:10.37,2013-03-17 20:10:00,
2013-03-17 15:15:00,26.0,9.9,30.01,SE,142,11.5,11.5,50,0.00,SCT,,0.00,WeatherDisplay:10.37,2013-03-17 20:15:00,
2013-03-17 15:20:00,26.1,10.0,30.01,SE,126,11.5,11.5,50,0.00,SCT,,0.00,WeatherDisplay:10.37,2013-03-17 20:20:00,
2013-03-17 15:25:00,26.4,10.7,30.01,SE,125,5.8,5.8,51,0.00,SCT,,0.00,WeatherDisplay:10.37,2013-03-17 20:25:00,
2013-03-17 15:30:00,26.3,9.7,30.00,East,94,5.8,5.8,49,0.00,SCT,,0.00,WeatherDisplay:10.37,2013-03-17 20:30:00,
2013-03-17 15:35:00,26.3,11.0,30.00,SE,146,10.4,10.4,52,0.00,SCT,,0.00,WeatherDisplay:10.37,2013-03-17 20:35:00,
2013-03-17 15:40:00,26.1,11.3,30.00,ESE,115,5.8,5.8,53,0.00,SCT,,0.00,WeatherDisplay:10.37,2013-03-17 20:40:00,
2013-03-17 15:45:00,25.6,10.8,29.99,SE,144,11.5,11.5,53,0.00,SCT,,0.00,WeatherDisplay:10.37,2013-03-17 20:45:00,
2013-03-17 15:50:00,25.1,10.3,29.99,SSE,158,12.7,12.7,53,0.00,SCT,,0.00,WeatherDisplay:10.37,2013-03-17 20:50:00,
2013-03-17 15:55:00,25.1,10.8,29.99,ENE,77,11.5,11.5,54,0.00,SCT,,0.00,WeatherDisplay:10.37,2013-03-17 20:55:00,
2013-03-17 16:00:00,25.4,10.6,29.99,ESE,108,10.4,10.4,53,0.00,BKN,,0.00,WeatherDisplay:10.37,2013-03-17 21:00:00,
2013-03-17 16:05:00,25.6,11.2,29.99,ESE,109,10.4,10.4,54,0.00,BKN,,0.00,WeatherDisplay:10.37,2013-03-17 21:05:00,
2013-03-17 16:10:00,25.8,11.4,29.99,East,99,10.4,10.4,54,0.00,BKN,,0.00,WeatherDisplay:10.37,2013-03-17 21:10:00,
2013-03-17 16:15:00,25.8,11.0,29.99,ESE,116,12.7,12.7,53,0.00,BKN,,0.00,WeatherDisplay:10.37,2013-03-17 21:15:00,
2013-03-17 16:20:00,25.7,11.3,29.99,ESE,111,8.1,8.1,54,0.00,BKN,,0.00,WeatherDisplay:10.37,2013-03-17 21:20:00,
2013-03-17 16:25:00,25.8,11.4,29.99,SE,127,6.9,6.9,54,0.00,BKN,,0.00,WeatherDisplay:10.37,2013-03-17 21:25:00,
2013-03-17 16:30:00,25.8,11.4,29.99,SSE,159,6.9,6.9,54,0.00,OVC,,0.00,WeatherDisplay:10.37,2013-03-17 21:30:00,
2013-03-17 16:35:00,26.3,11.9,29.99,SE,144,10.4,10.4,54,0.00,OVC,,0.00,WeatherDisplay:10.37,2013-03-17 21:35:00,
2013-03-17 16:40:00,26.1,10.9,29.99,SE,132,6.9,6.9,52,0.00,OVC,,0.00,WeatherDisplay:10.37,2013-03-17 21:40:00,
2013-03-17 16:45:00,26.4,12.0,29.98,SE,144,12.7,12.7,54,0.00,BKN,,0.00,WeatherDisplay:10.37,2013-03-17 21:45:00,
2013-03-17 16:50:00,26.6,11.7,29.98,SSE,150,10.4,10.4,53,0.00,BKN,,0.00,WeatherDisplay:10.37,2013-03-17 21:50:00,
2013-03-17 16:55:00,26.7,11.0,29.98,SSE,149,12.7,12.7,51,0.00,BKN,,0.00,WeatherDisplay:10.37,2013-03-17 21:55:00,
2013-03-17 17:00:00,26.6,11.3,29.98,SSE,148,5.8,5.8,52,0.00,BKN,,0.00,WeatherDisplay:10.37,2013-03-17 22:00:00,
2013-03-17 17:05:00,26.7,11.4,29.98,SE,146,10.4,10.4,52,0.00,BKN,,0.00,WeatherDisplay:10.37,2013-03-17 22:05:00,
2013-03-17 17:10:00,26.6,11.3,29.98,SSE,148,11.5,11.5,52,0.00,BKN,,0.00,WeatherDisplay:10.37,2013-03-17 22:10:00,
2013-03-17 17:15:00,26.6,11.7,29.98,SSE,157,5.8,5.8,53,0.00,BKN,,0.00,WeatherDisplay:10.37,2013-03-17 22:15:00,
2013-03-17 17:20:00,26.7,11.8,29.98,SE,140,10.4,10.4,53,0.00,BKN,,0.00,WeatherDisplay:10.37,2013-03-17 22:20:00,
2013-03-17 17:25:00,26.9,12.0,29.98,SSE,157,6.9,6.9,53,0.00,BKN,,0.00,WeatherDisplay:10.37,2013-03-17 22:25:00,
2013-03-17 17:30:00,27.0,12.1,29.96,SSE,151,11.5,11.5,53,0.00,SCT,,0.00,WeatherDisplay:10.37,2013-03-17 22:30:00,
2013-03-17 17:35:00,27.3,12.0,29.96,SSW,206,13.8,13.8,52,0.00,SCT,,0.00,WeatherDisplay:10.37,2013-03-17 22:35:00,
2013-03-17 17:40:00,27.8,12.4,29.96,SSE,155,9.2,9.2,52,0.00,SCT,,0.00,WeatherDisplay:10.37,2013-03-17 22:40:00,
2013-03-17 17:45:00,27.8,12.0,29.96,SSE,148,10.4,10.4,51,0.00,SCT,,0.00,WeatherDisplay:10.37,2013-03-17 22:45:00,
2013-03-17 17:50:00,27.3,12.0,29.96,SE,136,9.2,9.2,52,0.00,SCT,,0.00,WeatherDisplay:10.37,2013-03-17 22:50:00,
2013-03-17 17:55:00,26.9,12.0,29.96,SE,146,9.2,9.2,53,0.00,SCT,,0.00,WeatherDisplay:10.37,2013-03-17 22:55:00,
2013-03-17 18:00:00,26.6,12.2,29.96,SSE,158,10.4,10.4,54,0.00,SCT,,0.00,WeatherDisplay:10.37,2013-03-17 23:00:00,
2013-03-17 18:05:00,26.4,12.0,29.96,SE,142,9.2,9.2,54,0.00,SCT,,0.00,WeatherDisplay:10.37,2013-03-17 23:05:00,
2013-03-17 18:10:00,26.4,12.0,29.96,ESE,120,5.8,5.8,54,0.00,SCT,,0.00,WeatherDisplay:10.37,2013-03-17 23:10:00,
2013-03-17 18:15:00,26.6,12.6,29.96,ESE,117,9.2,9.2,55,0.00,SCT,,0.00,WeatherDisplay:10.37,2013-03-17 23:15:00,
2013-03-17 18:20:00,26.4,12.4,29.95,SE,146,3.5,3.5,55,0.00,SCT,,0.00,WeatherDisplay:10.37,2013-03-17 23:20:00,
2013-03-17 18:25:00,26.4,12.4,29.95,SSE,148,9.2,9.2,55,0.00,SCT,,0.00,WeatherDisplay:10.37,2013-03-17 23:25:00,
2013-03-17 18:30:00,26.6,13.0,29.94,SSE,149,9.2,9.2,56,0.00,OVC,,0.00,WeatherDisplay:10.37,2013-03-17 23:30:00,
2013-03-17 18:35:00,26.4,12.4,29.94,ESE,110,6.9,6.9,55,0.00,OVC,,0.00,WeatherDisplay:10.37,2013-03-17 23:35:00,
2013-03-17 18:40:00,26.6,13.0,29.94,SE,130,10.4,10.4,56,0.00,OVC,,0.00,WeatherDisplay:10.37,2013-03-17 23:40:00,
2013-03-17 18:45:00,26.6,13.0,29.93,SE,132,8.1,8.1,56,0.00,OVC,,0.00,WeatherDisplay:10.37,2013-03-17 23:45:00,
2013-03-17 18:50:00,26.6,13.0,29.93,ESE,123,13.8,13.8,56,0.00,OVC,,0.00,WeatherDisplay:10.37,2013-03-17 23:50:00,
2013-03-17 18:55:00,26.6,13.0,29.93,SE,138,6.9,6.9,56,0.00,OVC,,0.00,WeatherDisplay:10.37,2013-03-17 23:55:00,
2013-03-17 19:00:00,26.4,13.2,29.92,ESE,111,6.9,6.9,57,0.00,OVC,,0.00,WeatherDisplay:10.37,2013-03-18 00:00:00,
2013-03-17 19:05:00,26.4,13.2,29.92,ESE,119,10.4,10.4,57,0.00,OVC,,0.00,WeatherDisplay:10.37,2013-03-18 00:05:00,
2013-03-17 19:10:00,26.3,13.5,29.92,SSE,155,3.5,3.5,58,0.00,OVC,,0.00,WeatherDisplay:10.37,2013-03-18 00:10:00,
2013-03-17 19:15:00,26.1,13.3,29.92,SSE,159,6.9,6.9,58,0.00,OVC,,0.00,WeatherDisplay:10.37,2013-03-18 00:15:00,
2013-03-17 19:20:00,26.0,13.2,29.92,SSE,157,8.1,8.1,58,0.00,OVC,,0.00,WeatherDisplay:10.37,2013-03-18 00:20:00,
2013-03-17 19:25:00,25.8,13.4,29.92,SE,131,8.1,8.1,59,0.00,OVC,,0.00,WeatherDisplay:10.37,2013-03-18 00:25:00,
2013-03-17 19:30:00,25.7,13.3,29.92,SSE,157,6.9,6.9,59,0.00,BKN,,0.00,WeatherDisplay:10.37,2013-03-18 00:30:00,
2013-03-17 19:35:00,25.7,13.3,29.92,SSE,149,6.9,6.9,59,0.00,BKN,,0.00,WeatherDisplay:10.37,2013-03-18 00:35:00,
2013-03-17 19:40:00,25.6,13.2,29.92,SE,140,5.8,5.8,59,0.00,BKN,,0.00,WeatherDisplay:10.37,2013-03-18 00:40:00,
2013-03-17 19:45:00,25.6,13.2,29.92,ESE,103,6.9,6.9,59,0.00,SCT,,0.00,WeatherDisplay:10.37,2013-03-18 00:45:00,
2013-03-17 19:50:00,25.6,13.6,29.92,SE,140,11.5,11.5,60,0.00,SCT,,0.00,WeatherDisplay:10.37,2013-03-18 00:50:00,
2013-03-17 19:55:00,25.6,13.6,29.92,ESE,107,9.0,9.0,60,0.00,SCT,,0.00,WeatherDisplay:10.37,2013-03-18 00:55:00,
2013-03-17 20:00:00,25.6,13.6,29.91,ENE,78,9.2,9.2,60,0.00,BKN,,0.00,WeatherDisplay:10.37,2013-03-18 01:00:00,
2013-03-17 20:05:00,25.6,14.0,29.91,East,90,6.9,6.9,61,0.00,BKN,,0.00,WeatherDisplay:10.37,2013-03-18 01:05:00,
2013-03-17 20:10:00,25.4,13.8,29.91,SSE,148,9.2,9.2,61,0.00,BKN,,0.00,WeatherDisplay:10.37,2013-03-18 01:10:00,
2013-03-17 20:15:00,25.3,14.1,29.91,ESE,105,9.2,9.2,62,0.00,BKN,,0.00,WeatherDisplay:10.37,2013-03-18 01:15:00,
2013-03-17 20:20:00,25.1,13.9,29.91,SE,140,9.2,9.2,62,0.00,BKN,,0.00,WeatherDisplay:10.37,2013-03-18 01:20:00,
2013-03-17 20:25:00,25.1,13.9,29.91,East,93,5.8,5.8,62,0.00,BKN,,0.00,WeatherDisplay:10.37,2013-03-18 01:25:00,
2013-03-17 20:30:00,25.1,13.5,29.90,ESE,121,11.5,11.5,61,0.00,OVC,,0.00,WeatherDisplay:10.37,2013-03-18 01:30:00,
2013-03-17 20:35:00,25.1,13.9,29.90,SE,141,6.9,6.9,62,0.00,OVC,,0.00,WeatherDisplay:10.37,2013-03-18 01:35:00,
2013-03-17 20:40:00,25.1,14.3,29.90,ESE,109,10.4,10.4,63,0.00,OVC,,0.00,WeatherDisplay:10.37,2013-03-18 01:40:00,
2013-03-17 20:45:00,25.1,13.9,29.88,ESE,109,6.9,6.9,62,0.00,OVC,,0.00,WeatherDisplay:10.37,2013-03-18 01:45:00,
2013-03-17 20:50:00,25.1,13.9,29.88,SE,127,12.7,12.7,62,0.00,OVC,,0.00,WeatherDisplay:10.37,2013-03-18 01:50:00,
2013-03-17 20:55:00,25.3,14.1,29.88,SE,126,10.4,10.4,62,0.00,OVC,,0.00,WeatherDisplay:10.37,2013-03-18 01:55:00,
2013-03-17 21:00:00,25.3,14.1,29.88,SE,129,9.2,9.2,62,0.00,OVC,,0.00,WeatherDisplay:10.37,2013-03-18 02:00:00,
2013-03-17 21:05:00,25.3,14.1,29.88,SE,142,5.8,5.8,62,0.00,OVC,,0.00,WeatherDisplay:10.37,2013-03-18 02:05:00,
2013-03-17 21:10:00,25.4,14.2,29.88,SSE,149,5.8,5.8,62,0.00,OVC,,0.00,WeatherDisplay:10.37,2013-03-18 02:10:00,
2013-03-17 21:15:00,25.4,14.2,29.89,SSE,155,5.8,5.8,62,0.00,OVC,,0.00,WeatherDisplay:10.37,2013-03-18 02:15:00,
2013-03-17 21:20:00,25.4,14.2,29.89,SE,129,4.6,4.6,62,0.00,OVC,,0.00,WeatherDisplay:10.37,2013-03-18 02:20:00,
2013-03-17 21:25:00,25.4,14.2,29.89,SE,140,6.9,6.9,62,0.00,OVC,,0.00,WeatherDisplay:10.37,2013-03-18 02:25:00,
2013-03-17 21:30:00,25.4,14.5,29.89,SE,135,6.0,6.0,63,0.00,OVC,,0.00,WeatherDisplay:10.37,2013-03-18 02:30:00,
2013-03-17 21:35:00,25.4,14.5,29.88,SE,129,10.4,10.4,63,0.00,OVC,,0.00,WeatherDisplay:10.37,2013-03-18 02:35:00,
2013-03-17 21:40:00,25.4,14.5,29.88,SE,126,4.6,4.6,63,0.00,OVC,,0.00,WeatherDisplay:10.37,2013-03-18 02:40:00,
2013-03-17 21:45:00,25.6,14.7,29.88,SSE,150,5.8,5.8,63,0.00,OVC,,0.00,WeatherDisplay:10.37,2013-03-18 02:45:00,
2013-03-17 21:50:00,25.6,14.7,29.88,SE,130,6.9,6.9,63,0.00,OVC,,0.00,WeatherDisplay:10.37,2013-03-18 02:50:00,
2013-03-17 21:55:00,25.7,14.8,29.88,SSE,160,10.4,10.4,63,0.00,OVC,,0.00,WeatherDisplay:10.37,2013-03-18 02:55:00,
2013-03-17 22:00:00,25.7,15.2,29.88,SSE,166,10.4,10.4,64,0.00,OVC,,0.00,WeatherDisplay:10.37,2013-03-18 03:00:00,
2013-03-17 22:05:00,25.7,15.2,29.88,SSE,149,9.2,9.2,64,0.00,OVC,,0.00,WeatherDisplay:10.37,2013-03-18 03:05:00,
2013-03-17 22:10:00,25.7,15.2,29.88,SSE,153,6.9,6.9,64,0.00,OVC,,0.00,WeatherDisplay:10.37,2013-03-18 03:10:00,
2013-03-17 22:15:00,25.6,15.5,29.88,SE,143,10.4,10.4,65,0.00,OVC,,0.00,WeatherDisplay:10.37,2013-03-18 03:15:00,
2013-03-17 22:20:00,25.6,15.5,29.88,SSE,156,10.4,10.4,65,0.00,OVC,,0.00,WeatherDisplay:10.37,2013-03-18 03:20:00,
2013-03-17 22:25:00,25.4,15.6,29.88,SSE,165,5.8,5.8,66,0.00,OVC,,0.00,WeatherDisplay:10.37,2013-03-18 03:25:00,
2013-03-17 22:30:00,25.4,16.0,29.87,South,180,11.5,11.5,67,0.00,OVC,,0.00,WeatherDisplay:10.37,2013-03-18 03:30:00,
2013-03-17 22:35:00,25.4,16.6,29.87,South,169,17.3,17.3,69,0.00,OVC,,0.00,WeatherDisplay:10.37,2013-03-18 03:35:00,
2013-03-17 22:40:00,25.6,17.2,29.87,SSE,164,15.0,15.0,70,0.00,OVC,,0.00,WeatherDisplay:10.37,2013-03-18 03:40:00,
2013-03-17 22:45:00,25.6,17.5,29.87,South,184,12.7,12.7,71,0.00,OVC,,0.00,WeatherDisplay:10.37,2013-03-18 03:45:00,
2013-03-17 22:50:00,25.7,17.6,29.87,SSE,161,11.5,11.5,71,0.00,OVC,,0.00,WeatherDisplay:10.37,2013-03-18 03:50:00,
2013-03-17 22:55:00,25.8,18.0,29.87,SE,134,17.3,17.3,72,0.00,OVC,,0.00,WeatherDisplay:10.37,2013-03-18 03:55:00,
2013-03-17 23:00:00,25.8,18.0,29.86,South,169,13.8,13.8,72,0.00,OVC,,0.00,WeatherDisplay:10.37,2013-03-18 04:00:00,
2013-03-17 23:05:00,25.8,18.3,29.86,SE,136,11.5,11.5,73,0.00,OVC,,0.00,WeatherDisplay:10.37,2013-03-18 04:05:00,
2013-03-17 23:10:00,25.8,18.3,29.86,SSW,196,7.0,7.0,73,0.00,OVC,,0.00,WeatherDisplay:10.37,2013-03-18 04:10:00,
2013-03-17 23:15:00,26.0,18.5,29.86,SSE,149,13.8,13.8,73,0.00,OVC,,0.00,WeatherDisplay:10.37,2013-03-18 04:15:00,
2013-03-17 23:20:00,26.1,18.6,29.86,South,186,14.0,14.0,73,0.00,OVC,,0.00,WeatherDisplay:10.37,2013-03-18 04:20:00,
2013-03-17 23:25:00,26.1,18.6,29.86,SSE,161,12.7,12.7,73,0.00,OVC,,0.00,WeatherDisplay:10.37,2013-03-18 04:25:00,
2013-03-17 23:30:00,26.3,18.8,29.86,SSE,168,17.3,17.3,73,0.00,OVC,,0.00,WeatherDisplay:10.37,2013-03-18 04:30:00,
2013-03-17 23:35:00,26.6,19.1,29.86,South,183,18.4,18.4,73,0.00,OVC,,0.00,WeatherDisplay:10.37,2013-03-18 04:35:00,
2013-03-17 23:40:00,26.6,19.1,29.86,SSE,148,13.8,13.8,73,0.00,OVC,,0.00,WeatherDisplay:10.37,2013-03-18 04:40:00,
2013-03-17 23:45:00,26.7,19.2,29.86,SSE,165,17.3,17.3,73,0.00,OVC,,0.00,WeatherDisplay:10.37,2013-03-18 04:45:00,
2013-03-17 23:50:00,26.9,19.4,29.86,SSE,157,19.6,19.6,73,0.00,OVC,,0.00,WeatherDisplay:10.37,2013-03-18 04:50:00,
2013-03-17 23:55:00,26.9,19.4,29.86,South,186,17.3,17.3,73,0.00,OVC,,0.00,WeatherDisplay:10.37,2013-03-18 04:55:00,